createdAt,value
2019-01-23T00:05:04.580Z,95.996094
2019-01-23T00:10:27.338Z,96.209717
2019-01-23T00:15:51.034Z,95.935059
2019-01-23T00:21:14.701Z,95.831299
2019-01-23T00:26:37.458Z,95.513916
2019-01-23T00:32:00.208Z,95.306396
2019-01-23T00:37:22.942Z,94.567871
2019-01-23T00:42:45.654Z,95.092773
2019-01-23T00:48:08.508Z,95.410156
2019-01-23T00:53:31.258Z,95.196533
2019-01-23T00:58:55.560Z,94.989014
2019-01-23T01:04:18.378Z,94.989014
2019-01-23T01:09:41.131Z,94.354248
2019-01-23T01:15:03.876Z,93.829346
2019-01-23T01:20:27.721Z,93.19458
2019-01-23T01:25:50.689Z,92.669678
2019-01-23T01:31:13.610Z,92.773438
2019-01-23T01:36:36.414Z,93.511963
2019-01-23T01:41:59.214Z,93.408203
2019-01-23T01:47:21.956Z,93.237305
2019-01-23T01:52:44.759Z,94.293213
2019-01-23T01:58:10.152Z,93.87207
2019-01-23T02:03:31.444Z,94.396973
2019-01-23T02:08:54.306Z,94.818115
2019-01-23T02:14:17.086Z,95.288086
2019-01-23T02:19:39.835Z,95.599365
2019-01-23T02:25:02.651Z,95.178223
2019-01-23T02:30:25.418Z,95.709229
2019-01-23T02:35:48.185Z,95.709229
2019-01-23T02:41:11.046Z,96.026611
2019-01-23T02:46:33.806Z,96.130371
2019-01-23T02:51:56.512Z,96.447754
2019-01-23T02:57:22.035Z,96.655273
2019-01-23T03:02:44.851Z,96.337891
2019-01-23T03:08:07.762Z,96.447754
2019-01-23T03:13:30.564Z,96.130371
2019-01-23T03:18:53.355Z,96.337891
2019-01-23T03:24:16.142Z,95.812988
2019-01-23T03:29:38.963Z,94.86084
2019-01-23T03:35:02.365Z,95.288086
2019-01-23T03:40:25.163Z,95.391846
2019-01-23T03:45:47.973Z,95.288086
2019-01-23T03:51:10.932Z,94.970703
2019-01-23T03:56:33.768Z,94.65332
2019-01-23T04:01:56.512Z,94.439697
2019-01-23T04:07:19.241Z,94.439697
2019-01-23T04:12:42.203Z,93.914795
2019-01-23T04:18:05.050Z,93.804932
2019-01-23T04:23:27.821Z,93.493652
2019-01-23T04:28:50.716Z,93.383789
2019-01-23T04:34:13.562Z,92.962646
2019-01-23T04:39:36.296Z,92.858887
2019-01-23T04:44:59.082Z,93.066406
2019-01-23T04:50:21.796Z,92.791748
2019-01-23T04:55:44.632Z,92.687988
2019-01-23T05:01:07.344Z,92.437744
2019-01-23T05:06:30.053Z,91.949463
2019-01-23T05:11:52.754Z,92.370605
2019-01-23T05:17:16.493Z,92.370605
2019-01-23T05:22:39.324Z,91.949463
2019-01-23T05:28:02.165Z,91.802979
2019-01-23T05:33:25.037Z,91.552734
2019-01-23T05:38:47.874Z,90.814209
2019-01-23T05:44:10.748Z,90.350342
2019-01-23T05:49:35.333Z,90.350342
2019-01-23T05:54:58.100Z,90.667725
2019-01-23T06:00:21.737Z,89.782715
2019-01-23T06:05:44.472Z,89.678955
2019-01-23T06:11:07.225Z,89.147949
2019-01-23T06:16:29.888Z,88.830566
2019-01-23T06:21:52.809Z,88.830566
2019-01-23T06:27:14.792Z,87.988281
2019-01-23T06:32:37.468Z,88.098145
2019-01-23T06:38:00.477Z,88.269043
2019-01-23T06:43:23.375Z,87.634277
2019-01-23T06:48:47.252Z,88.05542
2019-01-23T06:54:09.995Z,88.372803
2019-01-23T06:59:32.683Z,88.372803
2019-01-23T07:04:55.415Z,88.372803
2019-01-23T07:10:18.152Z,88.690186
2019-01-23T07:15:41.588Z,88.15918
2019-01-23T07:21:04.409Z,87.908936
2019-01-23T07:26:27.209Z,87.597656
2019-01-23T07:31:50.280Z,88.439941
2019-01-23T07:37:13.283Z,88.439941
2019-01-23T07:42:36.268Z,88.604736
2019-01-23T07:47:59.381Z,88.293457
2019-01-23T07:53:22.347Z,87.762451
2019-01-23T07:58:45.307Z,86.462402
2019-01-23T08:04:08.050Z,87.097168
2019-01-23T08:09:30.740Z,86.425781
2019-01-23T08:14:54.432Z,84.844971
2019-01-23T08:20:17.181Z,84.80835
2019-01-23T08:25:39.979Z,84.490967
2019-01-23T08:31:02.634Z,83.544922
2019-01-23T08:36:25.715Z,82.8125
2019-01-23T08:41:48.616Z,82.983398
2019-01-23T08:47:11.625Z,82.391357
2019-01-23T08:52:34.809Z,82.458496
2019-01-23T08:57:58.054Z,81.793213
2019-01-23T09:03:21.179Z,79.376221
2019-01-23T09:08:44.276Z,81.756592
2019-01-23T09:14:07.397Z,80.493164
2019-01-23T09:19:30.399Z,81.756592
2019-01-23T09:24:53.419Z,82.067871
2019-01-23T09:30:16.460Z,83.776855
2019-01-23T09:35:39.516Z,83.148193
2019-01-23T09:41:02.554Z,83.184814
2019-01-23T09:46:25.610Z,85.009766
2019-01-23T09:51:48.723Z,83.538818
2019-01-23T09:57:11.639Z,84.692383
2019-01-23T10:02:34.353Z,84.234619
2019-01-23T10:07:57.004Z,82.940674
2019-01-23T10:13:20.230Z,82.202148
2019-01-23T10:18:42.939Z,82.623291
2019-01-23T10:24:05.608Z,81.225586
2019-01-23T10:29:28.292Z,80.804443
2019-01-23T10:34:50.988Z,80.596924
2019-01-23T10:40:13.729Z,80.212402
2019-01-23T10:45:38.195Z,81.469727
2019-01-23T10:51:01.810Z,79.858398
2019-01-23T10:56:24.560Z,77.203369
2019-01-23T11:01:49.050Z,76.330566
2019-01-23T11:07:11.901Z,77.069092
2019-01-23T11:12:35.623Z,77.34375
2019-01-23T11:17:58.669Z,76.055908
2019-01-23T11:23:21.936Z,75.634766
2019-01-23T11:28:45.032Z,74.969482
2019-01-23T11:34:07.976Z,75.390625
2019-01-23T11:39:31.081Z,76.263428
2019-01-23T11:44:53.854Z,74.798584
2019-01-23T11:50:21.273Z,76.68457
2019-01-23T11:55:40.213Z,75.042725
2019-01-23T12:01:04.769Z,75.598145
2019-01-23T12:06:27.453Z,76.99585
2019-01-23T12:11:50.233Z,75.982666
2019-01-23T12:17:13.933Z,74.584961
2019-01-23T12:22:36.922Z,73.327637
2019-01-23T12:27:59.883Z,74.029541
2019-01-23T12:33:22.949Z,72.491455
2019-01-23T12:38:45.997Z,72.912598
2019-01-23T12:44:08.988Z,74.09668
2019-01-23T12:49:32.273Z,71.655273
2019-01-23T12:54:55.322Z,71.685791
2019-01-23T13:00:18.125Z,72.070312
2019-01-23T13:05:41.556Z,71.026611
2019-01-23T13:11:04.240Z,71.966553
2019-01-23T13:16:28.970Z,71.234131
2019-01-23T13:21:51.659Z,71.655273
2019-01-23T13:27:14.406Z,71.44165
2019-01-23T13:32:37.708Z,73.150635
2019-01-23T13:38:00.469Z,72.521973
2019-01-23T13:43:23.488Z,73.046875
2019-01-23T13:48:46.433Z,72.521973
2019-01-23T13:54:09.350Z,73.571777
2019-01-23T13:59:32.218Z,74.517822
2019-01-23T14:04:55.759Z,73.498535
2019-01-23T14:10:19.157Z,74.6521
2019-01-23T14:15:42.126Z,75.006104
2019-01-23T14:21:05.016Z,76.470947
2019-01-23T14:26:27.774Z,75.946045
2019-01-23T14:31:50.494Z,76.049805
2019-01-23T14:37:15.073Z,75.982666
2019-01-23T14:42:37.887Z,78.918457
2019-01-23T14:48:01.300Z,77.697754
2019-01-23T14:53:24.280Z,79.272461
2019-01-23T14:58:47.187Z,78.887939
2019-01-23T15:04:10.164Z,79.412842
2019-01-23T15:09:33.142Z,79.095459
2019-01-23T15:14:56.036Z,80.145264
2019-01-23T15:20:18.742Z,80.883789
2019-01-23T15:25:41.488Z,80.603027
2019-01-23T15:31:04.365Z,80.328369
2019-01-23T15:36:27.046Z,80.114746
2019-01-23T15:41:49.720Z,80.957031
2019-01-23T15:47:13.195Z,81.274414
2019-01-23T15:52:35.868Z,80.993652
2019-01-23T15:57:58.500Z,81.835938
2019-01-23T16:03:21.255Z,82.501221
2019-01-23T16:08:44.011Z,82.501221
2019-01-23T16:14:06.806Z,83.032227
2019-01-23T16:19:29.760Z,82.434082
2019-01-23T16:24:53.666Z,81.280518
2019-01-23T16:30:17.623Z,82.159424
2019-01-23T16:35:40.487Z,83.14209
2019-01-23T16:41:03.712Z,84.869385
2019-01-23T16:46:26.375Z,83.392334
2019-01-23T16:51:51.377Z,84.27124
2019-01-23T16:57:11.813Z,85.113525
2019-01-23T17:02:38.587Z,85.577393
2019-01-23T17:07:57.434Z,85.26001
2019-01-23T17:13:20.199Z,85.15625
2019-01-23T17:18:42.869Z,84.838867
2019-01-23T17:24:05.801Z,85.406494
2019-01-23T17:29:30.706Z,85.931396
2019-01-23T17:34:51.166Z,85.931396
2019-01-23T17:40:14.616Z,87.030029
2019-01-23T17:45:37.039Z,87.915039
2019-01-23T17:51:00.082Z,88.903809
2019-01-23T17:56:23.098Z,89.428711
2019-01-23T18:01:47.686Z,88.61084
2019-01-23T18:07:10.680Z,88.40332
2019-01-23T18:12:33.928Z,88.40332
2019-01-23T18:17:56.969Z,88.61084
2019-01-23T18:23:20.080Z,88.970947
2019-01-23T18:28:43.115Z,88.928223
2019-01-23T18:34:05.970Z,88.757324
2019-01-23T18:39:28.833Z,89.28833
2019-01-23T18:44:52.003Z,89.117432
2019-01-23T18:50:14.831Z,90.740967
2019-01-23T18:55:39.709Z,90.698242
2019-01-23T19:01:03.139Z,90.2771
2019-01-23T19:06:29.391Z,90.380859
2019-01-23T19:11:52.314Z,90.130615
2019-01-23T19:17:15.300Z,90.380859
2019-01-23T19:22:38.192Z,90.698242
2019-01-23T19:28:00.927Z,90.911865
2019-01-23T19:33:24.594Z,90.911865
2019-01-23T19:38:47.360Z,91.271973
2019-01-23T19:44:10.175Z,91.8396
2019-01-23T19:49:33.185Z,92.370605
2019-01-23T19:54:56.496Z,91.943359
2019-01-23T20:00:19.029Z,92.877197
2019-01-23T20:05:42.023Z,93.725586
2019-01-23T20:11:05.155Z,94.146729
2019-01-23T20:16:28.073Z,94.146729
2019-01-23T20:21:51.229Z,94.464111
2019-01-23T20:27:14.149Z,94.189453
2019-01-23T20:32:37.007Z,94.824219
2019-01-23T20:38:00.022Z,94.824219
2019-01-23T20:43:22.896Z,95.037842
2019-01-23T20:48:46.364Z,94.976807
2019-01-23T20:54:09.303Z,95.501709
2019-01-23T20:59:32.129Z,95.715332
2019-01-23T21:04:55.042Z,95.776367
2019-01-23T21:10:17.890Z,95.251465
2019-01-23T21:15:40.758Z,95.294189
2019-01-23T21:21:04.121Z,95.544434
2019-01-23T21:26:27.174Z,96.563721
2019-01-23T21:31:50.526Z,96.185303
2019-01-23T21:37:14.186Z,96.459961
2019-01-23T21:42:38.138Z,96.350098
2019-01-23T21:48:00.980Z,96.502686
2019-01-23T21:53:23.961Z,96.246338
2019-01-23T21:58:46.681Z,96.075439
2019-01-23T22:04:09.358Z,96.606445
2019-01-23T22:09:32.114Z,96.820068
2019-01-23T22:14:54.909Z,96.923828
2019-01-23T22:20:17.582Z,96.502686
2019-01-23T22:25:40.266Z,96.435547
2019-01-23T22:31:02.951Z,97.015381
2019-01-23T22:36:25.662Z,97.589111
2019-01-23T22:41:48.384Z,98.162842
2019-01-23T22:47:11.009Z,99.072266
2019-01-23T22:52:33.858Z,98.376465
2019-01-23T22:57:56.565Z,98.358154
2019-01-23T23:03:19.912Z,99.584961
2019-01-23T23:08:42.710Z,99.859619
2019-01-23T23:14:06.896Z,99.713135
2019-01-23T23:19:30.489Z,99.456787
2019-01-23T23:24:53.407Z,98.773193
2019-01-23T23:30:16.385Z,97.86377
2019-01-23T23:35:39.308Z,97.86377
2019-01-23T23:41:03.675Z,97.906494
2019-01-23T23:46:26.390Z,98.284912
2019-01-23T23:51:49.083Z,98.242188
2019-01-23T23:57:11.918Z,97.290039
